Time;durP1;ratioP1;P1;durP2;ratioP2;P2;SDS_P1;SDS_P2;PMS_P1;PMS_P2;Temp;Humidity;BMP_temperature;BMP_pressure;BME280_temperature;BME280_humidity;BME280_pressure;Samples;Min_cycle;Max_cycle;Signal;HPM_P1;HPM_P2
2024/03/29 00:00:41;;;;;;;20.40;3.30;;;;;;;9.57;75.25;98755.85;79324;1301;3013716;-60
2024/03/29 00:03:07;;;;;;;20.00;2.50;;;;;;;9.57;75.62;98749.02;79345;1295;3012913;-60
2024/03/29 00:05:35;;;;;;;16.30;2.80;;;;;;;9.57;75.57;98750.94;77962;1301;3058391;-60
2024/03/29 00:08:03;;;;;;;15.90;2.60;;;;;;;9.51;75.91;98751.55;79512;1301;3013722;-59
2024/03/29 00:10:30;;;;;;;9.60;2.30;;;;;;;9.43;76.29;98742.75;79269;1301;3011686;-60
2024/03/29 00:12:58;;;;;;;13.20;3.10;;;;;;;9.39;76.57;98734.31;78442;1300;3052621;-62
2024/03/29 00:15:25;;;;;;;11.60;2.20;;;;;;;9.34;77.12;98746.33;79420;1301;3012892;-59
2024/03/29 00:17:51;;;;;;;12.00;2.30;;;;;;;9.34;77.15;98751.45;79355;1299;3011907;-61
2024/03/29 00:20:21;;;;;;;9.10;1.30;;;;;;;9.31;77.32;98748.63;78093;1300;3028277;-61
2024/03/29 00:22:47;;;;;;;14.60;1.70;;;;;;;9.82;75.66;98752.71;79186;1295;3012877;-61
2024/03/29 00:25:14;;;;;;;13.00;1.80;;;;;;;10.23;73.67;98752.14;79395;1295;3013534;-59
2024/03/29 00:27:44;;;;;;;7.90;2.60;;;;;;;9.96;74.44;98756.80;78104;1301;3053174;-61
2024/03/29 00:30:11;;;;;;;10.70;2.60;;;;;;;9.94;74.79;98750.15;79325;1301;3013198;-60
2024/03/29 00:32:40;;;;;;;13.60;2.60;;;;;;;9.86;75.00;98756.44;78882;1296;3012946;-59
2024/03/29 00:35:08;;;;;;;10.40;2.10;;;;;;;9.74;75.76;98747.67;79454;1296;3013049;-61
2024/03/29 00:37:34;;;;;;;20.60;3.10;;;;;;;9.73;76.13;98742.50;79276;1295;3011598;-58
2024/03/29 00:40:02;;;;;;;18.80;2.30;;;;;;;9.60;76.53;98751.61;78220;1295;3053522;-59
2024/03/29 00:42:29;;;;;;;10.30;3.10;;;;;;;9.56;76.97;98748.88;79259;1309;3013097;-57
2024/03/29 00:44:56;;;;;;;14.90;2.80;;;;;;;9.35;77.94;98742.42;79290;1301;3012094;-60
2024/03/29 00:47:24;;;;;;;14.50;2.90;;;;;;;9.36;78.09;98731.70;78052;1299;3026672;-63
2024/03/29 00:49:50;;;;;;;24.60;3.20;;;;;;;9.31;78.62;98729.77;79300;1300;3013681;-60
2024/03/29 00:52:17;;;;;;;15.10;2.20;;;;;;;9.25;79.03;98726.67;79264;1300;3011869;-61
2024/03/29 00:54:45;;;;;;;12.80;2.10;;;;;;;9.72;77.39;98732.45;78113;1300;3026762;-61
2024/03/29 00:57:14;;;;;;;17.50;2.60;;;;;;;10.04;75.98;98727.26;79351;1301;3011829;-58
2024/03/29 00:59:43;;;;;;;14.00;2.70;;;;;;;9.90;76.23;98730.18;79362;1300;3011955;-62
2024/03/29 01:02:11;;;;;;;18.70;2.70;;;;;;;9.81;76.50;98725.19;78277;1301;3069273;-60
2024/03/29 01:04:38;;;;;;;15.40;2.20;;;;;;;9.65;77.22;98708.06;79211;1300;3013679;-58
2024/03/29 01:07:05;;;;;;;15.00;2.90;;;;;;;9.55;77.78;98714.02;79188;1295;3013567;-62
2024/03/29 01:09:33;;;;;;;22.80;3.20;;;;;;;9.40;78.57;98710.27;78095;1296;3053576;-58
2024/03/29 01:11:59;;;;;;;14.00;2.70;;;;;;;9.31;79.16;98706.34;78965;1301;3013429;-62
2024/03/29 01:14:26;;;;;;;12.20;2.70;;;;;;;9.24;79.63;98708.05;79341;1301;3013025;-64
2024/03/29 01:16:54;;;;;;;17.50;3.60;;;;;;;9.14;80.15;98703.81;78029;1301;3028892;-59
2024/03/29 01:19:21;;;;;;;14.70;2.20;;;;;;;9.02;81.25;98695.88;79231;1301;3012765;-62
2024/03/29 01:21:47;;;;;;;14.50;2.50;;;;;;;9.38;80.04;98702.58;79333;1300;3011659;-63
2024/03/29 01:24:15;;;;;;;18.40;2.70;;;;;;;9.66;78.66;98708.70;77949;1296;3028698;-62
2024/03/29 01:26:41;;;;;;;15.30;2.50;;;;;;;9.65;78.53;98697.58;79469;1300;3018350;-62
2024/03/29 01:29:08;;;;;;;12.60;2.90;;;;;;;9.56;78.83;98704.61;79188;1298;3011580;-64
2024/03/29 01:31:37;;;;;;;17.20;2.90;;;;;;;9.49;79.49;98711.08;78039;1296;3028050;-59
2024/03/29 01:34:03;;;;;;;16.70;2.70;;;;;;;9.43;79.91;98719.52;79229;1295;3012225;-63
2024/03/29 01:36:30;;;;;;;15.80;2.60;;;;;;;9.32;80.20;98716.63;79322;1295;3011631;-60
2024/03/29 01:39:00;;;;;;;14.50;2.60;;;;;;;9.37;80.35;98713.16;78293;1300;3024893;-61
2024/03/29 01:41:27;;;;;;;18.50;2.80;;;;;;;9.23;81.30;98709.65;79340;1295;3011924;-61
2024/03/29 01:43:54;;;;;;;12.70;2.80;;;;;;;9.21;81.64;98710.55;79452;1301;3011628;-62
2024/03/29 01:46:23;;;;;;;14.70;3.00;;;;;;;9.56;80.65;98717.98;78122;1296;3069700;-62
2024/03/29 01:48:53;;;;;;;17.10;3.00;;;;;;;10.06;78.47;98705.91;79508;1295;3013279;-60
2024/03/29 01:51:22;;;;;;;23.00;3.20;;;;;;;10.16;77.50;98700.48;77986;1300;3055463;-61
2024/03/29 01:53:49;;;;;;;21.50;2.90;;;;;;;10.11;77.53;98711.52;79228;1300;3012982;-61
2024/03/29 01:56:15;;;;;;;19.30;2.90;;;;;;;10.09;77.48;98710.64;79377;1295;3012535;-61
2024/03/29 01:58:44;;;;;;;18.70;4.10;;;;;;;9.76;78.95;98716.92;78161;1300;3052840;-62
2024/03/29 02:01:11;;;;;;;18.70;3.00;;;;;;;9.76;79.38;98715.23;79125;1301;3018604;-62
2024/03/29 02:03:38;;;;;;;16.10;3.10;;;;;;;9.73;79.34;98707.66;79250;1301;3013444;-61
2024/03/29 02:06:06;;;;;;;22.50;3.40;;;;;;;9.62;79.72;98712.11;78215;1296;3058221;-60
2024/03/29 02:08:33;;;;;;;16.90;2.90;;;;;;;9.49;80.45;98717.36;79412;1301;3020414;-59
2024/03/29 02:11:00;;;;;;;15.50;2.60;;;;;;;9.39;81.22;98722.75;79231;1296;3011532;-62
2024/03/29 02:13:28;;;;;;;10.70;2.40;;;;;;;9.85;79.96;98718.96;78063;1301;3027206;-60
2024/03/29 02:15:55;;;;;;;19.80;3.30;;;;;;;10.16;78.21;98710.30;79371;1296;3012906;-60
2024/03/29 02:18:22;;;;;;;18.20;3.20;;;;;;;10.05;78.41;98698.11;79560;1301;3013171;-61
2024/03/29 02:20:50;;;;;;;15.80;2.80;;;;;;;9.88;78.87;98701.75;77988;1302;3026790;-59
2024/03/29 02:23:19;;;;;;;15.60;2.80;;;;;;;9.67;80.17;98712.52;79205;1296;3013435;-61
2024/03/29 02:25:48;;;;;;;15.00;3.10;;;;;;;9.57;80.62;98709.34;78772;1296;3011850;-58
2024/03/29 02:28:15;;;;;;;24.40;4.10;;;;;;;9.41;81.49;98706.89;79409;1301;3018997;-59
2024/03/29 02:30:41;;;;;;;16.80;2.80;;;;;;;9.24;82.49;98709.82;79439;1301;3011440;-61
2024/03/29 02:33:09;;;;;;;12.40;3.30;;;;;;;9.11;83.73;98715.34;78009;1301;3028777;-62
2024/03/29 02:35:36;;;;;;;20.30;2.90;;;;;;;9.09;84.19;98713.21;79461;1300;3020831;-61
2024/03/29 02:38:02;;;;;;;17.50;3.20;;;;;;;9.59;82.69;98713.95;79206;1296;3011679;-60
2024/03/29 02:40:30;;;;;;;16.50;3.40;;;;;;;9.89;80.54;98719.22;78204;1296;3028895;-60
2024/03/29 02:42:57;;;;;;;19.80;3.90;;;;;;;9.89;80.43;98724.80;79375;1302;3013365;-62
2024/03/29 02:45:23;;;;;;;14.10;2.90;;;;;;;9.72;81.17;98730.71;79291;1301;3012083;-61
2024/03/29 02:47:51;;;;;;;18.30;2.90;;;;;;;9.61;82.09;98734.36;78038;1299;3026366;-61
2024/03/29 02:50:18;;;;;;;19.50;3.30;;;;;;;9.43;82.89;98741.38;79293;1301;3012862;-62
2024/03/29 02:52:45;;;;;;;20.60;4.00;;;;;;;9.36;83.34;98743.73;79429;1296;3012048;-61
2024/03/29 02:55:13;;;;;;;20.10;3.60;;;;;;;9.22;84.36;98748.40;78046;1300;3028965;-61
2024/03/29 02:57:40;;;;;;;19.70;3.20;;;;;;;9.17;85.01;98749.57;79377;1300;3012933;-57
2024/03/29 03:00:08;;;;;;;19.50;3.30;;;;;;;9.50;83.95;98743.02;79241;1309;3011464;-58
2024/03/29 03:02:39;;;;;;;17.80;3.80;;;;;;;9.78;82.52;98744.42;78181;1296;3068838;-58
2024/03/29 03:11:00;;;;;;;31.30;4.30;;;;;;;9.34;84.30;98756.35;77783;1304;3053533;-58
2024/03/29 03:13:28;;;;;;;20.80;4.30;;;;;;;9.35;84.29;98753.66;77840;1301;3049588;-60
2024/03/29 03:15:55;;;;;;;18.10;4.30;;;;;;;9.13;85.47;98754.02;78935;1307;3018273;-60
2024/03/29 03:18:22;;;;;;;21.40;4.80;;;;;;;9.17;85.93;98744.66;79026;1306;3013496;-60
2024/03/29 03:20:53;;;;;;;13.60;3.80;;;;;;;9.62;83.93;98743.94;77800;1304;3229683;-60
2024/03/29 03:23:20;;;;;;;18.00;3.70;;;;;;;9.81;82.68;98736.69;79280;1302;3011695;-61
2024/03/29 03:25:56;;;;;;;17.50;3.40;;;;;;;9.73;82.31;98732.70;78047;1303;3026428;-62
2024/03/29 03:28:25;;;;;;;19.60;4.10;;;;;;;9.40;83.92;98734.56;78761;1299;3013096;-62
2024/03/29 03:30:52;;;;;;;23.60;3.30;;;;;;;9.13;85.23;98732.35;79211;1303;3013632;-62
2024/03/29 03:33:19;;;;;;;20.00;4.00;;;;;;;9.02;86.24;98723.30;79147;1298;3011866;-63
2024/03/29 03:35:47;;;;;;;15.30;3.70;;;;;;;8.86;86.93;98721.88;77843;1303;3053143;-61
2024/03/29 03:38:15;;;;;;;19.90;3.10;;;;;;;8.81;87.67;98721.53;79340;1298;3013235;-62
2024/03/29 03:40:41;;;;;;;17.90;3.70;;;;;;;9.11;86.86;98729.01;79219;1303;3011924;-60
2024/03/29 03:43:10;;;;;;;18.50;3.80;;;;;;;9.31;85.50;98743.42;78007;1298;3050151;-61
2024/03/29 03:45:40;;;;;;;21.00;4.00;;;;;;;9.30;85.72;98745.42;79430;1300;3013659;-61
2024/03/29 03:48:12;;;;;;;23.10;4.40;;;;;;;9.23;85.81;98752.64;79026;1298;3011674;-61
2024/03/29 03:50:41;;;;;;;35.20;4.40;;;;;;;8.99;87.23;98742.69;79558;1298;3011612;-60
2024/03/29 03:53:09;;;;;;;22.40;4.30;;;;;;;8.87;88.30;98730.71;78313;1302;3052676;-61
2024/03/29 03:55:37;;;;;;;18.50;4.20;;;;;;;8.83;88.61;98733.46;79431;1301;3020210;-60
2024/03/29 03:58:04;;;;;;;16.60;3.70;;;;;;;9.19;87.28;98745.95;79490;1298;3011632;-62
2024/03/29 04:00:32;;;;;;;17.70;3.50;;;;;;;9.54;85.52;98748.50;78246;1300;3049092;-59
2024/03/29 04:02:58;;;;;;;24.10;3.60;;;;;;;9.39;85.20;98748.83;79344;1298;3019608;-62
2024/03/29 04:05:26;;;;;;;17.70;4.00;;;;;;;9.26;86.31;98751.80;79397;1298;3011944;-61
2024/03/29 04:07:54;;;;;;;32.10;4.50;;;;;;;9.04;87.23;98757.76;78166;1299;3051190;-60
2024/03/29 04:10:20;;;;;;;22.00;5.00;;;;;;;8.88;88.84;98763.35;79314;1296;3021294;-61
2024/03/29 04:12:47;;;;;;;22.10;4.40;;;;;;;8.72;90.06;98765.05;79608;1297;3013312;-60
2024/03/29 04:15:15;;;;;;;25.00;4.30;;;;;;;9.13;89.15;98761.52;78415;1300;3028600;-58
2024/03/29 04:17:42;;;;;;;21.80;4.30;;;;;;;9.36;87.19;98768.58;79412;1301;3018404;-60
2024/03/29 04:20:09;;;;;;;18.40;4.80;;;;;;;9.24;87.71;98770.91;79375;1297;3013195;-59
2024/03/29 04:22:37;;;;;;;21.80;5.10;;;;;;;9.08;88.36;98777.78;78180;1301;3052265;-59
2024/03/29 04:25:04;;;;;;;20.90;4.50;;;;;;;8.95;89.11;98777.93;79692;1295;3013590;-60
2024/03/29 04:27:30;;;;;;;19.20;4.40;;;;;;;8.80;89.91;98779.23;79448;1295;3011894;-62
2024/03/29 04:29:58;;;;;;;20.00;3.70;;;;;;;8.82;90.24;98776.64;78358;1297;3026396;-59
2024/03/29 04:32:25;;;;;;;23.00;4.30;;;;;;;9.13;89.24;98778.30;79588;1295;3013505;-60
2024/03/29 04:34:52;;;;;;;17.30;4.10;;;;;;;9.42;87.34;98785.68;79668;1297;3013182;-60
2024/03/29 04:37:20;;;;;;;15.70;3.80;;;;;;;9.39;87.01;98782.55;78382;1297;3026375;-59
2024/03/29 04:39:47;;;;;;;24.50;4.20;;;;;;;9.24;87.66;98778.30;79538;1294;3013047;-62
2024/03/29 04:42:14;;;;;;;23.60;4.50;;;;;;;9.01;88.71;98789.56;79470;1293;3011612;-62
2024/03/29 04:44:42;;;;;;;22.50;4.60;;;;;;;8.84;89.79;98787.33;78262;1297;3026652;-60
2024/03/29 04:47:09;;;;;;;18.40;4.00;;;;;;;8.70;90.64;98792.04;79760;1298;3013090;-61
2024/03/29 04:49:38;;;;;;;18.00;3.70;;;;;;;9.08;89.77;98791.55;79539;1297;3013724;-60
2024/03/29 04:52:07;;;;;;;18.70;4.40;;;;;;;9.26;88.26;98783.73;78276;1297;3052460;-57
2024/03/29 04:54:33;;;;;;;28.70;6.80;;;;;;;9.20;88.56;98781.71;79520;1297;3013031;-59
2024/03/29 04:57:06;;;;;;;28.20;4.70;;;;;;;9.12;88.75;98786.58;79402;1297;3011533;-60
2024/03/29 04:59:34;;;;;;;22.80;5.20;;;;;;;9.08;89.34;98783.18;78249;1295;3048319;-59
2024/03/29 05:02:00;;;;;;;20.50;4.70;;;;;;;9.05;89.66;98780.02;79716;1297;3013153;-63
2024/03/29 05:04:28;;;;;;;26.60;4.10;;;;;;;9.06;90.25;98781.72;79667;1295;3011458;-61
2024/03/29 05:06:57;;;;;;;22.80;4.80;;;;;;;9.47;88.36;98780.27;78299;1297;3026145;-59
2024/03/29 05:09:24;;;;;;;31.60;4.60;;;;;;;9.65;87.25;98786.76;79483;1294;3015310;-62
2024/03/29 05:11:51;;;;;;;28.30;4.80;;;;;;;9.69;86.71;98795.91;79434;1295;3011622;-58
2024/03/29 05:14:20;;;;;;;21.90;4.90;;;;;;;9.54;87.52;98783.63;78337;1297;3049411;-59
2024/03/29 05:16:47;;;;;;;26.20;5.40;;;;;;;9.48;88.24;98776.07;79549;1294;3015967;-60
2024/03/29 05:19:14;;;;;;;24.50;7.10;;;;;;;9.39;88.37;98774.36;79432;1295;3012962;-58
2024/03/29 05:21:42;;;;;;;22.10;4.60;;;;;;;9.42;89.00;98777.98;78392;1295;3052597;-61
2024/03/29 05:24:09;;;;;;;21.70;4.70;;;;;;;9.92;87.15;98771.95;79553;1297;3020834;-59
2024/03/29 05:26:35;;;;;;;34.20;6.10;;;;;;;10.21;85.06;98776.27;79499;1293;3013341;-60
2024/03/29 05:29:04;;;;;;;24.50;5.30;;;;;;;10.19;84.97;98772.95;78229;1297;3028612;-59
2024/03/29 05:31:30;;;;;;;27.30;5.40;;;;;;;10.06;85.69;98773.13;79510;1295;3013326;-62
2024/03/29 05:33:57;;;;;;;20.30;4.70;;;;;;;9.78;87.02;98780.48;79474;1297;3011385;-61
2024/03/29 05:36:25;;;;;;;27.00;5.90;;;;;;;9.76;87.34;98779.36;78450;1297;3025842;-59
2024/03/29 05:38:51;;;;;;;16.20;4.70;;;;;;;9.75;87.98;98778.22;79700;1297;3012874;-59
2024/03/29 05:41:18;;;;;;;21.90;5.10;;;;;;;10.11;86.54;98775.91;79506;1298;3011569;-64
2024/03/29 05:43:46;;;;;;;18.50;4.90;;;;;;;10.49;84.79;98781.48;78278;1297;3027072;-60
2024/03/29 05:46:15;;;;;;;26.40;4.80;;;;;;;10.41;84.66;98784.36;79386;1295;3020752;-62
2024/03/29 05:48:44;;;;;;;20.30;5.00;;;;;;;10.48;84.81;98780.73;78947;1297;3013005;-60
2024/03/29 05:51:11;;;;;;;22.60;5.40;;;;;;;10.37;85.18;98780.77;79491;1297;3013435;-60
2024/03/29 05:53:38;;;;;;;25.70;4.90;;;;;;;10.46;84.98;98783.70;79550;1296;3011718;-61
2024/03/29 05:56:06;;;;;;;26.30;4.80;;;;;;;10.29;85.62;98786.42;78244;1297;3026646;-58
2024/03/29 05:58:36;;;;;;;34.20;4.60;;;;;;;10.64;84.90;98778.17;79512;1295;3013756;-61
2024/03/29 06:01:04;;;;;;;18.60;5.30;;;;;;;10.95;83.13;98775.27;78459;1295;3054362;-59
2024/03/29 06:03:31;;;;;;;26.00;4.40;;;;;;;11.15;82.20;98769.96;79470;1297;3019265;-62
2024/03/29 06:05:58;;;;;;;26.10;4.80;;;;;;;11.04;82.42;98770.38;79539;1297;3013516;-61
2024/03/29 06:08:27;;;;;;;24.70;5.00;;;;;;;10.92;83.21;98764.96;78245;1297;3026263;-60
2024/03/29 06:10:54;;;;;;;31.90;5.70;;;;;;;10.81;83.80;98769.80;79613;1295;3014803;-62
2024/03/29 06:17:22;;;;;;;20.20;5.40;;;;;;;10.79;84.30;98766.05;79558;1295;3011669;-61
2024/03/29 06:19:04;;;;;;;18.40;4.00;;;;;;;11.75;81.08;98769.29;78359;1297;3050634;-60
2024/03/29 06:21:38;;;;;;;32.20;5.50;;;;;;;11.98;79.66;98770.90;79750;1298;3013328;-63
2024/03/29 06:24:07;;;;;;;24.60;5.00;;;;;;;11.88;79.13;98767.95;78266;1295;3069955;-60
2024/03/29 06:26:34;;;;;;;31.40;5.50;;;;;;;11.64;80.02;98772.45;79466;1295;3013756;-61
2024/03/29 06:29:01;;;;;;;24.10;5.10;;;;;;;11.58;80.64;98780.27;79668;1296;3011543;-61
2024/03/29 06:31:29;;;;;;;24.20;5.20;;;;;;;11.52;80.92;98779.13;78370;1297;3053169;-61
2024/03/29 06:33:59;;;;;;;42.40;5.60;;;;;;;11.47;81.21;98775.47;79696;1297;3013502;-60
2024/03/29 06:36:30;;;;;;;28.10;6.50;;;;;;;11.56;81.59;98778.83;79001;1297;3013323;-61
2024/03/29 06:38:56;;;;;;;24.00;4.90;;;;;;;11.46;81.73;98775.20;79868;1297;3012769;-61
2024/03/29 06:41:23;;;;;;;29.40;5.30;;;;;;;11.98;80.46;98771.58;79469;1295;3013215;-59
2024/03/29 06:43:51;;;;;;;26.40;6.00;;;;;;;12.36;78.04;98768.31;78233;1297;3055744;-59
2024/03/29 06:46:18;;;;;;;27.40;5.80;;;;;;;12.61;76.75;98763.35;79688;1295;3013417;-62
2024/03/29 06:48:44;;;;;;;27.40;4.80;;;;;;;12.44;77.26;98764.48;79477;1295;3011569;-61
2024/03/29 06:51:12;;;;;;;22.20;5.20;;;;;;;12.46;77.42;98763.13;78521;1295;3028956;-63
2024/03/29 06:53:39;;;;;;;34.90;6.80;;;;;;;12.35;77.54;98769.09;79619;1297;3012833;-59
2024/03/29 06:56:06;;;;;;;29.40;6.50;;;;;;;12.25;78.52;98770.89;79598;1297;3013368;-58
2024/03/29 06:58:34;;;;;;;31.10;6.80;;;;;;;12.34;78.25;98767.80;78744;1297;3028088;-61
2024/03/29 07:01:01;;;;;;;29.30;5.90;;;;;;;12.35;78.41;98768.92;79462;1298;3012838;-60
2024/03/29 07:03:28;;;;;;;27.60;6.00;;;;;;;12.33;78.51;98769.94;79481;1297;3013184;-62
2024/03/29 07:05:56;;;;;;;28.20;5.00;;;;;;;12.34;78.66;98772.69;78428;1297;3053528;-58
2024/03/29 07:08:23;;;;;;;24.70;5.40;;;;;;;12.74;77.30;98766.32;79819;1297;3020970;-59
2024/03/29 07:11:00;;;;;;;30.10;6.20;;;;;;;13.24;75.46;98761.36;79528;1297;3011857;-59
2024/03/29 07:13:29;;;;;;;25.80;5.30;;;;;;;13.40;74.41;98756.60;78258;1297;3057020;-61
2024/03/29 07:15:58;;;;;;;28.60;6.40;;;;;;;13.46;74.23;98760.28;79489;1293;3011424;-59
2024/03/29 07:18:26;;;;;;;28.30;6.00;;;;;;;13.19;75.22;98766.20;79009;1297;3011509;-63
2024/03/29 07:20:53;;;;;;;32.30;5.80;;;;;;;13.28;74.93;98762.50;79493;1297;3018612;-62
2024/03/29 07:23:20;;;;;;;30.00;6.50;;;;;;;13.19;75.83;98764.81;79593;1296;3013225;-60
2024/03/29 07:26:14;;;;;;;30.60;5.10;;;;;;;13.27;75.15;98769.08;78634;1298;3028314;-61
2024/03/29 07:28:42;;;;;;;26.00;5.40;;;;;;;13.36;75.11;98773.40;78593;1297;3052748;-59
2024/03/29 07:31:09;;;;;;;30.70;6.10;;;;;;;13.18;75.46;98775.28;79597;1295;3013071;-62
2024/03/29 07:33:36;;;;;;;25.40;5.60;;;;;;;13.26;75.60;98780.06;79614;1297;3011592;-62
2024/03/29 07:36:05;;;;;;;28.70;5.90;;;;;;;13.26;75.60;98786.17;78282;1297;3028136;-60
2024/03/29 07:38:32;;;;;;;30.90;6.40;;;;;;;13.41;75.05;98780.61;79744;1295;3011752;-60
2024/03/29 07:40:59;;;;;;;29.80;5.70;;;;;;;13.71;74.13;98783.23;79642;1298;3012955;-61
2024/03/29 07:43:36;;;;;;;31.80;6.80;;;;;;;13.70;74.08;98780.48;78460;1297;3052922;-58
2024/03/29 07:46:05;;;;;;;26.80;5.70;;;;;;;13.72;73.80;98793.86;78093;1299;3057327;-58
2024/03/29 07:48:32;;;;;;;23.40;5.80;;;;;;;13.79;73.62;98796.77;79556;1298;3013111;-59
2024/03/29 07:50:59;;;;;;;26.10;5.00;;;;;;;13.83;73.11;98803.45;80168;1298;3013493;-61
2024/03/29 07:53:27;;;;;;;21.20;5.50;;;;;;;13.96;72.81;98792.71;78410;1297;3052733;-60
2024/03/29 07:55:55;;;;;;;25.60;5.10;;;;;;;14.06;72.72;98784.32;79710;1295;3013417;-59
2024/03/29 07:58:21;;;;;;;25.10;5.30;;;;;;;14.24;71.89;98792.59;79473;1295;3011339;-59
2024/03/29 08:00:49;;;;;;;27.90;5.30;;;;;;;14.41;71.35;98774.26;78490;1296;3057009;-60
2024/03/29 08:03:16;;;;;;;26.10;6.00;;;;;;;14.54;70.73;98777.34;79788;1298;3013177;-64
2024/03/29 08:05:42;;;;;;;26.50;5.60;;;;;;;14.65;70.31;98773.59;79404;1297;3011953;-62
2024/03/29 08:08:11;;;;;;;28.40;5.60;;;;;;;14.60;70.35;98774.84;78407;1297;3027417;-58
2024/03/29 08:10:37;;;;;;;24.40;5.00;;;;;;;14.54;70.87;98777.85;79398;1295;3013077;-61
2024/03/29 08:13:05;;;;;;;36.40;6.00;;;;;;;14.53;70.98;98769.68;79600;1298;3013512;-63
2024/03/29 08:15:34;;;;;;;30.90;5.90;;;;;;;14.67;70.49;98776.41;78185;1298;3055812;-62
2024/03/29 08:18:00;;;;;;;25.60;5.30;;;;;;;14.67;70.24;98777.09;79531;1297;3019028;-59
2024/03/29 08:20:29;;;;;;;22.50;5.40;;;;;;;14.70;70.36;98778.23;79505;1298;3011775;-62
2024/03/29 08:22:59;;;;;;;33.20;5.30;;;;;;;14.90;69.65;98783.85;78251;1298;3053327;-61
2024/03/29 08:25:27;;;;;;;21.00;4.70;;;;;;;14.91;69.60;98774.10;79667;1296;3013384;-59
2024/03/29 08:27:59;;;;;;;22.80;5.20;;;;;;;15.12;69.28;98767.43;78967;1295;3011634;-62
2024/03/29 08:30:26;;;;;;;27.70;5.60;;;;;;;15.38;68.43;98772.71;79905;1297;3011861;-62
2024/03/29 08:32:54;;;;;;;32.70;5.70;;;;;;;15.52;67.69;98770.86;79359;1298;3011644;-62
2024/03/29 08:35:21;;;;;;;21.90;5.00;;;;;;;15.52;67.31;98773.88;79487;1297;3018672;-59
2024/03/29 08:37:50;;;;;;;27.10;4.90;;;;;;;15.39;67.36;98770.67;79790;1297;3011616;-62
2024/03/29 08:40:17;;;;;;;21.50;4.70;;;;;;;15.38;67.72;98764.19;78486;1297;3052380;-62
2024/03/29 08:42:44;;;;;;;29.60;4.90;;;;;;;15.47;67.13;98757.97;79471;1300;3013211;-63
2024/03/29 08:45:12;;;;;;;33.70;6.90;;;;;;;15.58;66.82;98752.71;79438;1299;3013599;-64
2024/03/29 08:47:40;;;;;;;29.00;5.00;;;;;;;15.49;66.87;98754.02;78433;1308;3056809;-62
2024/03/29 08:50:08;;;;;;;30.50;5.20;;;;;;;15.47;67.12;98750.48;79999;1298;3013416;-62
2024/03/29 08:52:35;;;;;;;23.90;5.30;;;;;;;15.54;66.93;98744.27;79548;1296;3011614;-59
2024/03/29 08:55:03;;;;;;;20.90;5.20;;;;;;;15.59;66.62;98746.04;78387;1298;3053371;-61
2024/03/29 08:57:30;;;;;;;19.20;4.70;;;;;;;15.65;66.41;98753.81;79537;1299;3013277;-63
2024/03/29 08:59:57;;;;;;;25.70;5.60;;;;;;;15.68;66.39;98745.60;79789;1296;3011866;-63
2024/03/29 09:02:25;;;;;;;29.60;5.00;;;;;;;15.70;66.18;98746.82;78481;1297;3056783;-61
2024/03/29 09:04:52;;;;;;;25.50;5.30;;;;;;;15.72;65.98;98743.92;79462;1295;3021324;-62
2024/03/29 09:07:18;;;;;;;26.10;4.80;;;;;;;15.88;65.94;98737.23;79345;1297;3013230;-62
2024/03/29 09:09:46;;;;;;;29.90;6.30;;;;;;;16.05;65.24;98738.45;78348;1297;3028859;-63
2024/03/29 09:12:13;;;;;;;16.60;4.40;;;;;;;15.90;65.52;98740.67;80085;1299;3012954;-62
2024/03/29 09:14:39;;;;;;;25.70;5.00;;;;;;;15.97;65.39;98739.58;79657;1295;3011606;-63
2024/03/29 09:17:10;;;;;;;23.30;4.90;;;;;;;16.01;65.04;98732.95;78271;1295;3027046;-62
2024/03/29 09:19:37;;;;;;;24.30;6.10;;;;;;;16.03;65.45;98735.65;79525;1302;3011635;-60
2024/03/29 09:22:05;;;;;;;37.20;5.40;;;;;;;16.07;65.52;98735.61;79112;1298;3011868;-60
2024/03/29 09:24:34;;;;;;;27.10;5.00;;;;;;;15.98;65.59;98732.70;79519;1299;3013319;-59
2024/03/29 09:27:01;;;;;;;30.90;6.00;;;;;;;16.05;65.42;98730.85;79570;1297;3011581;-59
2024/03/29 09:29:28;;;;;;;22.70;5.60;;;;;;;16.17;65.17;98730.29;78245;1295;3068312;-61
2024/03/29 09:31:55;;;;;;;17.20;4.00;;;;;;;16.23;64.82;98733.02;79546;1294;3013615;-59
2024/03/29 09:34:23;;;;;;;32.80;5.90;;;;;;;16.23;64.53;98733.02;79362;1297;3011704;-62
2024/03/29 09:36:51;;;;;;;19.80;4.90;;;;;;;16.29;64.89;98727.34;78271;1297;3052892;-60
2024/03/29 09:39:17;;;;;;;26.30;5.20;;;;;;;16.37;64.74;98721.98;79433;1295;3013585;-60
2024/03/29 09:41:47;;;;;;;18.40;4.60;;;;;;;16.49;64.22;98729.66;79532;1295;3011632;-62
2024/03/29 09:44:15;;;;;;;29.70;5.10;;;;;;;16.53;62.71;98727.65;78216;1296;3068397;-62
2024/03/29 09:46:42;;;;;;;21.00;4.40;;;;;;;16.55;62.82;98719.92;79703;1296;3012830;-59
2024/03/29 09:49:11;;;;;;;20.90;5.10;;;;;;;16.50;63.11;98729.95;79253;1294;3011835;-60
2024/03/29 09:51:40;;;;;;;26.00;5.60;;;;;;;16.54;62.64;98713.38;78234;1295;3053849;-61
2024/03/29 09:54:08;;;;;;;27.80;6.60;;;;;;;16.65;62.18;98713.65;79376;1296;3020683;-60
2024/03/29 09:56:34;;;;;;;20.30;5.40;;;;;;;16.78;61.85;98704.70;79518;1295;3011594;-58
2024/03/29 09:59:03;;;;;;;26.00;5.00;;;;;;;16.79;61.55;98705.87;78323;1297;3069884;-60
2024/03/29 10:01:30;;;;;;;26.80;5.90;;;;;;;16.95;61.37;98699.56;79559;1295;3012873;-61
2024/03/29 10:03:57;;;;;;;20.30;5.40;;;;;;;17.07;60.48;98697.48;79421;1294;3011947;-58
2024/03/29 10:06:25;;;;;;;24.00;4.70;;;;;;;17.06;59.32;98699.90;78018;1301;3053632;-60
2024/03/29 10:08:54;;;;;;;22.40;5.20;;;;;;;17.09;58.33;98699.73;79439;1297;3013616;-58
2024/03/29 10:11:21;;;;;;;20.60;5.50;;;;;;;17.00;57.81;98698.13;79446;1298;3011653;-58
2024/03/29 10:13:49;;;;;;;26.90;8.00;;;;;;;16.94;58.75;98695.36;78159;1296;3069475;-59
2024/03/29 10:16:21;;;;;;;33.90;11.60;;;;;;;16.94;58.77;98692.79;79454;1297;3018836;-60
2024/03/29 10:18:48;;;;;;;40.10;10.80;;;;;;;16.94;57.97;98687.63;78240;1297;3048785;-59
2024/03/29 10:21:15;;;;;;;36.90;9.10;;;;;;;17.04;57.35;98686.25;79499;1301;3012862;-62
2024/03/29 10:23:42;;;;;;;26.90;7.10;;;;;;;17.07;56.98;98682.73;79434;1298;3012665;-59
2024/03/29 10:26:12;;;;;;;18.30;4.60;;;;;;;17.06;55.57;98678.70;78316;1297;3026429;-61
2024/03/29 10:28:39;;;;;;;17.10;4.40;;;;;;;16.98;54.93;98677.54;79584;1298;3011443;-62
2024/03/29 10:31:06;;;;;;;21.90;5.50;;;;;;;16.89;54.95;98675.34;79492;1293;3011919;-60
2024/03/29 10:33:34;;;;;;;24.00;6.60;;;;;;;16.88;54.95;98670.54;78203;1297;3049381;-59
2024/03/29 10:36:04;;;;;;;20.50;5.70;;;;;;;17.03;54.94;98663.92;79456;1296;3013148;-61
2024/03/29 10:38:32;;;;;;;20.80;6.30;;;;;;;17.08;54.50;98664.71;78313;1311;3052851;-60
2024/03/29 10:41:00;;;;;;;16.30;4.90;;;;;;;17.11;54.04;98662.78;79325;1295;3012912;-61
2024/03/29 10:43:27;;;;;;;23.90;4.70;;;;;;;17.21;54.76;98656.48;79461;1294;3011656;-61
2024/03/29 10:45:59;;;;;;;22.60;4.00;;;;;;;17.25;53.98;98651.58;78366;1297;3057055;-60
2024/03/29 10:48:27;;;;;;;21.50;4.00;;;;;;;17.39;52.75;98650.05;80044;1294;3013311;-60
2024/03/29 10:50:56;;;;;;;27.50;4.00;;;;;;;17.62;51.79;98645.38;78437;1294;3026008;-61
2024/03/29 10:53:25;;;;;;;27.30;4.00;;;;;;;17.85;51.06;98642.16;79709;1297;3012864;-61
2024/03/29 10:55:54;;;;;;;15.40;3.00;;;;;;;18.10;48.90;98630.41;78301;1297;3026929;-61
2024/03/29 10:58:24;;;;;;;13.40;3.80;;;;;;;18.30;47.60;98624.73;79730;1294;3013965;-60
2024/03/29 11:00:55;;;;;;;14.20;3.90;;;;;;;18.29;46.79;98621.92;78052;1298;3053928;-59
2024/03/29 11:03:34;;;;;;;19.20;3.00;;;;;;;18.39;46.37;98612.56;79774;1297;3013723;-60
2024/03/29 11:06:04;;;;;;;14.40;3.10;;;;;;;18.45;45.02;98606.66;78346;1298;3049868;-58
2024/03/29 11:08:34;;;;;;;21.20;3.40;;;;;;;18.67;45.29;98600.02;79914;1293;3012960;-59
2024/03/29 11:11:04;;;;;;;12.40;2.80;;;;;;;18.89;44.45;98603.33;78399;1293;3048952;-59
2024/03/29 11:13:40;;;;;;;13.70;2.40;;;;;;;19.13;43.42;98589.05;79473;1296;3012836;-60
2024/03/29 11:16:08;;;;;;;15.30;2.20;;;;;;;19.32;42.16;98591.44;78203;1298;3053764;-58
2024/03/29 11:18:38;;;;;;;17.40;3.00;;;;;;;19.28;40.44;98579.06;79297;1296;3018381;-59
2024/03/29 11:21:09;;;;;;;10.20;1.90;;;;;;;18.87;40.12;98582.65;78666;1295;3011752;-60
2024/03/29 11:23:36;;;;;;;9.20;1.70;;;;;;;18.84;38.67;98565.88;79179;1298;3011616;-59